Weather at RAF Akrotiri

Public forecast

Using degrees Celsius for public forecast. Weather courtesy of forecast.io.

Current aviation weather report (METAR) for RAF Akrotiri

2024/06/18 06:20 (retrieved 30 minutes ago)

LCRA 180620Z 21006KT 9999 FEW018 27/22 Q1010 NOSIG

Aviation forecast (TAF) for RAF Akrotiri

2024/06/18 06:36 Ammendment (retrieved 14 minutes ago)

TAF AMD TAF AMD LCRA 180632Z 1806/1824 13003KT CAVOK BECMG 1806/1812 23008KT BECMG 1821/1824 08005KT